sensor_id;sensor_type;location;lat;lon;timestamp;temperature;humidity
16823;DHT22;8528;49.976;11.858;2023-11-21T00:00:26;6.70;99.90
16823;DHT22;8528;49.976;11.858;2023-11-21T00:02:55;6.70;99.90
16823;DHT22;8528;49.976;11.858;2023-11-21T00:05:22;6.60;99.90
16823;DHT22;8528;49.976;11.858;2023-11-21T00:07:50;6.60;99.90
16823;DHT22;8528;49.976;11.858;2023-11-21T00:10:20;6.60;99.90
16823;DHT22;8528;49.976;11.858;2023-11-21T00:12:48;6.70;99.90
16823;DHT22;8528;49.976;11.858;2023-11-21T00:15:15;6.70;99.90
16823;DHT22;8528;49.976;11.858;2023-11-21T00:17:42;6.70;99.90
16823;DHT22;8528;49.976;11.858;2023-11-21T00:20:10;6.70;99.90
16823;DHT22;8528;49.976;11.858;2023-11-21T00:22:40;6.70;99.90
16823;DHT22;8528;49.976;11.858;2023-11-21T00:25:10;6.70;99.90
16823;DHT22;8528;49.976;11.858;2023-11-21T00:27:41;6.70;99.90
16823;DHT22;8528;49.976;11.858;2023-11-21T00:30:16;6.60;99.90
16823;DHT22;8528;49.976;11.858;2023-11-21T00:32:43;6.60;99.90
16823;DHT22;8528;49.976;11.858;2023-11-21T00:35:11;6.70;99.90
16823;DHT22;8528;49.976;11.858;2023-11-21T00:37:48;6.60;99.90
16823;DHT22;8528;49.976;11.858;2023-11-21T00:40:16;6.60;99.90
16823;DHT22;8528;49.976;11.858;2023-11-21T00:42:46;6.60;99.90
16823;DHT22;8528;49.976;11.858;2023-11-21T00:45:13;6.60;99.90
16823;DHT22;8528;49.976;11.858;2023-11-21T00:47:43;6.70;99.90
16823;DHT22;8528;49.976;11.858;2023-11-21T00:50:10;6.60;99.90
16823;DHT22;8528;49.976;11.858;2023-11-21T00:52:37;6.70;99.90
16823;DHT22;8528;49.976;11.858;2023-11-21T00:55:08;6.70;99.90
16823;DHT22;8528;49.976;11.858;2023-11-21T00:57:41;6.70;99.90
16823;DHT22;8528;49.976;11.858;2023-11-21T01:00:08;6.60;99.90
16823;DHT22;8528;49.976;11.858;2023-11-21T01:02:44;6.60;99.90
16823;DHT22;8528;49.976;11.858;2023-11-21T01:05:23;6.50;99.90
16823;DHT22;8528;49.976;11.858;2023-11-21T01:07:49;6.60;99.90
16823;DHT22;8528;49.976;11.858;2023-11-21T01:10:20;6.60;99.90
16823;DHT22;8528;49.976;11.858;2023-11-21T01:12:50;6.60;99.90
16823;DHT22;8528;49.976;11.858;2023-11-21T01:15:19;6.60;99.90
16823;DHT22;8528;49.976;11.858;2023-11-21T01:17:47;6.60;99.90
16823;DHT22;8528;49.976;11.858;2023-11-21T01:20:14;6.60;99.90
16823;DHT22;8528;49.976;11.858;2023-11-21T01:22:42;6.60;99.90
16823;DHT22;8528;49.976;11.858;2023-11-21T01:25:10;6.60;99.90
16823;DHT22;8528;49.976;11.858;2023-11-21T01:27:37;6.50;99.90
16823;DHT22;8528;49.976;11.858;2023-11-21T01:30:05;6.50;99.90
16823;DHT22;8528;49.976;11.858;2023-11-21T01:32:34;6.60;99.90
16823;DHT22;8528;49.976;11.858;2023-11-21T01:35:01;6.50;99.90
16823;DHT22;8528;49.976;11.858;2023-11-21T01:37:32;6.60;99.90
16823;DHT22;8528;49.976;11.858;2023-11-21T01:40:02;6.50;99.90
16823;DHT22;8528;49.976;11.858;2023-11-21T01:42:35;6.50;99.90
16823;DHT22;8528;49.976;11.858;2023-11-21T01:45:03;6.40;99.90
16823;DHT22;8528;49.976;11.858;2023-11-21T01:47:34;6.40;99.90
16823;DHT22;8528;49.976;11.858;2023-11-21T01:50:03;6.40;99.90
16823;DHT22;8528;49.976;11.858;2023-11-21T01:52:40;6.40;99.90
16823;DHT22;8528;49.976;11.858;2023-11-21T01:55:08;6.40;99.90
16823;DHT22;8528;49.976;11.858;2023-11-21T01:57:39;6.50;99.90
16823;DHT22;8528;49.976;11.858;2023-11-21T02:00:06;6.50;99.90
16823;DHT22;8528;49.976;11.858;2023-11-21T02:02:48;6.50;99.90
16823;DHT22;8528;49.976;11.858;2023-11-21T02:05:19;6.50;99.90
16823;DHT22;8528;49.976;11.858;2023-11-21T02:07:47;6.60;99.90
16823;DHT22;8528;49.976;11.858;2023-11-21T02:10:25;6.60;99.90
16823;DHT22;8528;49.976;11.858;2023-11-21T02:12:52;6.60;99.90
16823;DHT22;8528;49.976;11.858;2023-11-21T02:15:22;6.50;99.90
16823;DHT22;8528;49.976;11.858;2023-11-21T02:17:53;6.50;99.90
16823;DHT22;8528;49.976;11.858;2023-11-21T02:20:22;6.50;99.90
16823;DHT22;8528;49.976;11.858;2023-11-21T02:22:52;6.50;99.90
16823;DHT22;8528;49.976;11.858;2023-11-21T02:25:29;6.50;99.90
16823;DHT22;8528;49.976;11.858;2023-11-21T02:28:00;6.50;99.90
16823;DHT22;8528;49.976;11.858;2023-11-21T02:30:28;6.50;99.90
16823;DHT22;8528;49.976;11.858;2023-11-21T02:33:09;6.50;99.90
16823;DHT22;8528;49.976;11.858;2023-11-21T02:35:36;6.50;99.90
16823;DHT22;8528;49.976;11.858;2023-11-21T02:38:04;6.50;99.90
16823;DHT22;8528;49.976;11.858;2023-11-21T02:40:33;6.50;99.90
16823;DHT22;8528;49.976;11.858;2023-11-21T02:43:00;6.50;99.90
16823;DHT22;8528;49.976;11.858;2023-11-21T02:45:27;6.50;99.90
16823;DHT22;8528;49.976;11.858;2023-11-21T02:47:54;6.50;99.90
16823;DHT22;8528;49.976;11.858;2023-11-21T02:50:25;6.50;99.90
16823;DHT22;8528;49.976;11.858;2023-11-21T02:52:52;6.50;99.90
16823;DHT22;8528;49.976;11.858;2023-11-21T02:55:21;6.50;99.90
16823;DHT22;8528;49.976;11.858;2023-11-21T02:57:54;6.50;99.90
16823;DHT22;8528;49.976;11.858;2023-11-21T03:00:23;6.50;99.90
16823;DHT22;8528;49.976;11.858;2023-11-21T03:02:55;6.40;99.90
16823;DHT22;8528;49.976;11.858;2023-11-21T03:05:22;6.50;99.90
16823;DHT22;8528;49.976;11.858;2023-11-21T03:07:49;6.50;99.90
16823;DHT22;8528;49.976;11.858;2023-11-21T03:10:17;6.50;99.90
16823;DHT22;8528;49.976;11.858;2023-11-21T03:12:44;6.50;99.90
16823;DHT22;8528;49.976;11.858;2023-11-21T03:15:11;6.50;99.90
16823;DHT22;8528;49.976;11.858;2023-11-21T03:17:39;6.50;99.90
16823;DHT22;8528;49.976;11.858;2023-11-21T03:20:16;6.50;99.90
16823;DHT22;8528;49.976;11.858;2023-11-21T03:22:44;6.50;99.90
16823;DHT22;8528;49.976;11.858;2023-11-21T03:25:18;6.50;99.90
16823;DHT22;8528;49.976;11.858;2023-11-21T03:27:47;6.50;99.90
16823;DHT22;8528;49.976;11.858;2023-11-21T03:30:22;6.50;99.90
16823;DHT22;8528;49.976;11.858;2023-11-21T03:32:52;6.50;99.90
16823;DHT22;8528;49.976;11.858;2023-11-21T03:35:22;6.50;99.90
16823;DHT22;8528;49.976;11.858;2023-11-21T03:37:50;6.50;99.90
16823;DHT22;8528;49.976;11.858;2023-11-21T03:40:23;6.50;99.90
16823;DHT22;8528;49.976;11.858;2023-11-21T03:42:50;6.50;99.90
16823;DHT22;8528;49.976;11.858;2023-11-21T03:45:17;6.60;99.90
16823;DHT22;8528;49.976;11.858;2023-11-21T03:47:51;6.60;99.90
16823;DHT22;8528;49.976;11.858;2023-11-21T03:50:18;6.60;99.90
16823;DHT22;8528;49.976;11.858;2023-11-21T03:52:45;6.50;99.90
16823;DHT22;8528;49.976;11.858;2023-11-21T03:55:12;6.50;99.90
16823;DHT22;8528;49.976;11.858;2023-11-21T03:57:39;6.60;99.90
16823;DHT22;8528;49.976;11.858;2023-11-21T04:00:07;6.60;99.90
16823;DHT22;8528;49.976;11.858;2023-11-21T04:02:41;6.60;99.90
16823;DHT22;8528;49.976;11.858;2023-11-21T04:05:08;6.60;99.90
16823;DHT22;8528;49.976;11.858;2023-11-21T04:07:43;6.60;99.90
16823;DHT22;8528;49.976;11.858;2023-11-21T04:10:12;6.60;99.90
16823;DHT22;8528;49.976;11.858;2023-11-21T04:12:43;6.70;99.90
16823;DHT22;8528;49.976;11.858;2023-11-21T04:15:13;6.70;99.90
16823;DHT22;8528;49.976;11.858;2023-11-21T04:17:41;6.70;99.90
16823;DHT22;8528;49.976;11.858;2023-11-21T04:20:09;6.70;99.90
16823;DHT22;8528;49.976;11.858;2023-11-21T04:22:43;6.70;99.90
16823;DHT22;8528;49.976;11.858;2023-11-21T04:25:16;6.70;99.90
16823;DHT22;8528;49.976;11.858;2023-11-21T04:27:44;6.70;99.90
16823;DHT22;8528;49.976;11.858;2023-11-21T04:30:13;6.70;99.90
16823;DHT22;8528;49.976;11.858;2023-11-21T04:32:40;6.70;99.90
16823;DHT22;8528;49.976;11.858;2023-11-21T04:35:09;6.60;99.90
16823;DHT22;8528;49.976;11.858;2023-11-21T04:37:36;6.70;99.90
16823;DHT22;8528;49.976;11.858;2023-11-21T04:40:04;6.70;99.90
16823;DHT22;8528;49.976;11.858;2023-11-21T04:42:40;6.70;99.90
16823;DHT22;8528;49.976;11.858;2023-11-21T04:45:08;6.70;99.90
16823;DHT22;8528;49.976;11.858;2023-11-21T04:47:36;6.70;99.90
16823;DHT22;8528;49.976;11.858;2023-11-21T04:50:10;6.70;99.90
16823;DHT22;8528;49.976;11.858;2023-11-21T04:52:45;6.70;99.90
16823;DHT22;8528;49.976;11.858;2023-11-21T04:55:12;6.70;99.90
16823;DHT22;8528;49.976;11.858;2023-11-21T04:57:39;6.70;99.90
16823;DHT22;8528;49.976;11.858;2023-11-21T05:00:10;6.60;99.90
16823;DHT22;8528;49.976;11.858;2023-11-21T05:02:41;6.60;99.90
16823;DHT22;8528;49.976;11.858;2023-11-21T05:05:09;6.60;99.90
16823;DHT22;8528;49.976;11.858;2023-11-21T05:07:41;6.60;99.90
16823;DHT22;8528;49.976;11.858;2023-11-21T05:10:10;6.60;99.90
16823;DHT22;8528;49.976;11.858;2023-11-21T05:12:44;6.70;99.90
16823;DHT22;8528;49.976;11.858;2023-11-21T05:15:14;6.60;99.90
16823;DHT22;8528;49.976;11.858;2023-11-21T05:17:44;6.60;99.90
16823;DHT22;8528;49.976;11.858;2023-11-21T05:20:14;6.60;99.90
16823;DHT22;8528;49.976;11.858;2023-11-21T05:22:48;6.70;99.90
16823;DHT22;8528;49.976;11.858;2023-11-21T05:25:16;6.60;99.90
16823;DHT22;8528;49.976;11.858;2023-11-21T05:27:47;6.60;99.90
16823;DHT22;8528;49.976;11.858;2023-11-21T05:30:21;6.50;99.90
16823;DHT22;8528;49.976;11.858;2023-11-21T05:32:49;6.50;99.90
16823;DHT22;8528;49.976;11.858;2023-11-21T05:35:18;6.50;99.90
16823;DHT22;8528;49.976;11.858;2023-11-21T05:37:46;6.50;99.90
16823;DHT22;8528;49.976;11.858;2023-11-21T05:40:17;6.50;99.90
16823;DHT22;8528;49.976;11.858;2023-11-21T05:42:44;6.60;99.90
16823;DHT22;8528;49.976;11.858;2023-11-21T05:45:12;6.60;99.90
16823;DHT22;8528;49.976;11.858;2023-11-21T05:47:42;6.60;99.90
16823;DHT22;8528;49.976;11.858;2023-11-21T05:50:10;6.60;99.90
16823;DHT22;8528;49.976;11.858;2023-11-21T05:52:41;6.60;99.90
16823;DHT22;8528;49.976;11.858;2023-11-21T05:55:17;6.60;99.90
16823;DHT22;8528;49.976;11.858;2023-11-21T05:57:45;6.60;99.90
16823;DHT22;8528;49.976;11.858;2023-11-21T06:00:13;6.60;99.90
16823;DHT22;8528;49.976;11.858;2023-11-21T06:02:55;6.60;99.90
16823;DHT22;8528;49.976;11.858;2023-11-21T06:05:25;6.60;99.90
16823;DHT22;8528;49.976;11.858;2023-11-21T06:07:54;6.60;99.90
16823;DHT22;8528;49.976;11.858;2023-11-21T06:10:24;6.60;99.90
16823;DHT22;8528;49.976;11.858;2023-11-21T06:12:52;6.60;99.90
16823;DHT22;8528;49.976;11.858;2023-11-21T06:15:23;6.60;99.90
16823;DHT22;8528;49.976;11.858;2023-11-21T06:17:51;6.60;99.90
16823;DHT22;8528;49.976;11.858;2023-11-21T06:20:22;6.60;99.90
16823;DHT22;8528;49.976;11.858;2023-11-21T06:23:09;6.60;99.90
16823;DHT22;8528;49.976;11.858;2023-11-21T06:25:40;6.60;99.90
16823;DHT22;8528;49.976;11.858;2023-11-21T06:28:10;6.60;99.90
16823;DHT22;8528;49.976;11.858;2023-11-21T06:30:40;6.70;99.90
16823;DHT22;8528;49.976;11.858;2023-11-21T06:33:07;6.60;99.90
16823;DHT22;8528;49.976;11.858;2023-11-21T06:35:37;6.60;99.90
16823;DHT22;8528;49.976;11.858;2023-11-21T06:38:05;6.70;99.90
16823;DHT22;8528;49.976;11.858;2023-11-21T06:40:32;6.70;99.90
16823;DHT22;8528;49.976;11.858;2023-11-21T06:43:00;6.70;99.90
16823;DHT22;8528;49.976;11.858;2023-11-21T06:45:30;6.70;99.90
16823;DHT22;8528;49.976;11.858;2023-11-21T06:48:00;6.60;99.90
16823;DHT22;8528;49.976;11.858;2023-11-21T06:50:27;6.60;99.90
16823;DHT22;8528;49.976;11.858;2023-11-21T06:52:57;6.60;99.90
16823;DHT22;8528;49.976;11.858;2023-11-21T06:55:25;6.60;99.90
16823;DHT22;8528;49.976;11.858;2023-11-21T06:57:52;6.60;99.90
16823;DHT22;8528;49.976;11.858;2023-11-21T07:00:22;6.50;99.90
16823;DHT22;8528;49.976;11.858;2023-11-21T07:02:52;6.50;99.90
16823;DHT22;8528;49.976;11.858;2023-11-21T07:05:20;6.50;99.90
16823;DHT22;8528;49.976;11.858;2023-11-21T07:07:49;6.50;99.90
16823;DHT22;8528;49.976;11.858;2023-11-21T07:10:16;6.40;99.90
16823;DHT22;8528;49.976;11.858;2023-11-21T07:12:44;6.50;99.90
16823;DHT22;8528;49.976;11.858;2023-11-21T07:15:11;6.50;99.90
16823;DHT22;8528;49.976;11.858;2023-11-21T07:17:50;6.50;99.90
16823;DHT22;8528;49.976;11.858;2023-11-21T07:20:21;6.50;99.90
16823;DHT22;8528;49.976;11.858;2023-11-21T07:22:49;6.60;99.90
16823;DHT22;8528;49.976;11.858;2023-11-21T07:25:17;6.60;99.90
16823;DHT22;8528;49.976;11.858;2023-11-21T07:27:44;6.60;99.90
16823;DHT22;8528;49.976;11.858;2023-11-21T07:30:12;6.60;99.90
16823;DHT22;8528;49.976;11.858;2023-11-21T07:32:51;6.60;99.90
16823;DHT22;8528;49.976;11.858;2023-11-21T07:35:21;6.60;99.90
16823;DHT22;8528;49.976;11.858;2023-11-21T07:37:49;6.50;99.90
16823;DHT22;8528;49.976;11.858;2023-11-21T07:40:17;6.50;99.90
16823;DHT22;8528;49.976;11.858;2023-11-21T07:42:44;6.60;99.90
16823;DHT22;8528;49.976;11.858;2023-11-21T07:45:11;6.60;99.90
16823;DHT22;8528;49.976;11.858;2023-11-21T07:47:44;6.60;99.90
16823;DHT22;8528;49.976;11.858;2023-11-21T07:50:22;6.60;99.90
16823;DHT22;8528;49.976;11.858;2023-11-21T07:52:52;6.60;99.90
16823;DHT22;8528;49.976;11.858;2023-11-21T07:55:25;6.70;99.90
16823;DHT22;8528;49.976;11.858;2023-11-21T07:58:02;6.70;99.90
16823;DHT22;8528;49.976;11.858;2023-11-21T08:00:30;6.70;99.90
16823;DHT22;8528;49.976;11.858;2023-11-21T08:03:13;6.80;99.90
16823;DHT22;8528;49.976;11.858;2023-11-21T08:06:01;6.80;99.90
16823;DHT22;8528;49.976;11.858;2023-11-21T08:08:30;6.80;99.90
16823;DHT22;8528;49.976;11.858;2023-11-21T08:10:57;6.80;99.90
16823;DHT22;8528;49.976;11.858;2023-11-21T08:13:28;6.90;99.90
16823;DHT22;8528;49.976;11.858;2023-11-21T08:15:57;7.00;99.90
16823;DHT22;8528;49.976;11.858;2023-11-21T08:18:28;7.00;99.90
16823;DHT22;8528;49.976;11.858;2023-11-21T08:20:56;7.00;99.90
16823;DHT22;8528;49.976;11.858;2023-11-21T08:23:24;7.00;99.90
16823;DHT22;8528;49.976;11.858;2023-11-21T08:25:56;7.00;99.90
16823;DHT22;8528;49.976;11.858;2023-11-21T08:28:26;7.00;99.90
16823;DHT22;8528;49.976;11.858;2023-11-21T08:30:53;7.00;99.90
16823;DHT22;8528;49.976;11.858;2023-11-21T08:33:26;7.10;99.90
16823;DHT22;8528;49.976;11.858;2023-11-21T08:35:53;7.30;99.90
16823;DHT22;8528;49.976;11.858;2023-11-21T08:38:20;7.30;99.90
16823;DHT22;8528;49.976;11.858;2023-11-21T08:41:06;7.50;99.90
16823;DHT22;8528;49.976;11.858;2023-11-21T08:43:40;7.50;99.90
16823;DHT22;8528;49.976;11.858;2023-11-21T08:46:10;7.50;99.90
16823;DHT22;8528;49.976;11.858;2023-11-21T08:48:41;7.50;99.90
16823;DHT22;8528;49.976;11.858;2023-11-21T08:51:10;7.60;99.90
16823;DHT22;8528;49.976;11.858;2023-11-21T08:53:38;7.60;99.90
16823;DHT22;8528;49.976;11.858;2023-11-21T08:56:05;7.70;99.90
16823;DHT22;8528;49.976;11.858;2023-11-21T08:58:33;7.70;99.90
16823;DHT22;8528;49.976;11.858;2023-11-21T09:01:03;7.70;99.90
16823;DHT22;8528;49.976;11.858;2023-11-21T09:03:30;7.60;99.90
16823;DHT22;8528;49.976;11.858;2023-11-21T09:05:59;7.60;99.90
16823;DHT22;8528;49.976;11.858;2023-11-21T09:08:26;7.60;99.90
16823;DHT22;8528;49.976;11.858;2023-11-21T09:10:56;7.60;99.90
16823;DHT22;8528;49.976;11.858;2023-11-21T09:13:37;7.70;99.90
16823;DHT22;8528;49.976;11.858;2023-11-21T09:16:07;7.70;99.90
16823;DHT22;8528;49.976;11.858;2023-11-21T09:18:34;7.80;99.90
16823;DHT22;8528;49.976;11.858;2023-11-21T09:21:01;8.00;99.90
16823;DHT22;8528;49.976;11.858;2023-11-21T09:23:34;8.20;99.90
16823;DHT22;8528;49.976;11.858;2023-11-21T09:26:01;8.50;99.90
16823;DHT22;8528;49.976;11.858;2023-11-21T09:28:28;9.00;99.90
16823;DHT22;8528;49.976;11.858;2023-11-21T09:30:55;9.90;99.90
16823;DHT22;8528;49.976;11.858;2023-11-21T09:33:22;12.00;99.90
16823;DHT22;8528;49.976;11.858;2023-11-21T09:36:04;13.40;99.90
16823;DHT22;8528;49.976;11.858;2023-11-21T09:38:32;14.10;99.90
16823;DHT22;8528;49.976;11.858;2023-11-21T09:41:02;14.30;99.90
16823;DHT22;8528;49.976;11.858;2023-11-21T09:43:32;14.30;99.90
16823;DHT22;8528;49.976;11.858;2023-11-21T09:46:00;14.00;99.90
16823;DHT22;8528;49.976;11.858;2023-11-21T09:48:29;13.80;99.90
16823;DHT22;8528;49.976;11.858;2023-11-21T09:51:00;13.20;99.90
16823;DHT22;8528;49.976;11.858;2023-11-21T09:53:32;13.00;99.90
16823;DHT22;8528;49.976;11.858;2023-11-21T09:56:04;12.70;99.90
16823;DHT22;8528;49.976;11.858;2023-11-21T09:58:34;12.50;99.90
16823;DHT22;8528;49.976;11.858;2023-11-21T10:01:01;12.00;99.90
16823;DHT22;8528;49.976;11.858;2023-11-21T10:03:38;11.70;99.90
16823;DHT22;8528;49.976;11.858;2023-11-21T10:06:06;11.40;99.90
16823;DHT22;8528;49.976;11.858;2023-11-21T10:08:35;11.20;99.90
16823;DHT22;8528;49.976;11.858;2023-11-21T10:11:19;11.10;99.90
16823;DHT22;8528;49.976;11.858;2023-11-21T10:13:55;11.00;99.90
16823;DHT22;8528;49.976;11.858;2023-11-21T10:16:26;10.90;99.90
16823;DHT22;8528;49.976;11.858;2023-11-21T10:18:54;10.70;99.90
16823;DHT22;8528;49.976;11.858;2023-11-21T10:21:38;10.80;99.90
16823;DHT22;8528;49.976;11.858;2023-11-21T10:24:06;10.80;99.90
16823;DHT22;8528;49.976;11.858;2023-11-21T10:26:33;11.00;99.90
16823;DHT22;8528;49.976;11.858;2023-11-21T10:29:16;11.20;99.90
16823;DHT22;8528;49.976;11.858;2023-11-21T10:31:52;11.50;99.90
16823;DHT22;8528;49.976;11.858;2023-11-21T10:34:21;12.10;99.90
16823;DHT22;8528;49.976;11.858;2023-11-21T10:36:49;13.40;99.90
16823;DHT22;8528;49.976;11.858;2023-11-21T10:39:20;15.40;99.90
16823;DHT22;8528;49.976;11.858;2023-11-21T10:41:50;16.40;99.90
16823;DHT22;8528;49.976;11.858;2023-11-21T10:44:18;17.70;99.90
16823;DHT22;8528;49.976;11.858;2023-11-21T10:46:51;19.90;99.90
16823;DHT22;8528;49.976;11.858;2023-11-21T10:49:21;22.40;91.00
16823;DHT22;8528;49.976;11.858;2023-11-21T10:51:48;24.90;74.30
16823;DHT22;8528;49.976;11.858;2023-11-21T10:54:25;26.30;62.70
16823;DHT22;8528;49.976;11.858;2023-11-21T10:57:00;27.40;56.60
16823;DHT22;8528;49.976;11.858;2023-11-21T10:59:29;28.90;51.60
16823;DHT22;8528;49.976;11.858;2023-11-21T11:02:01;29.70;48.90
16823;DHT22;8528;49.976;11.858;2023-11-21T11:04:30;28.90;46.20
16823;DHT22;8528;49.976;11.858;2023-11-21T11:07:02;27.40;48.20
16823;DHT22;8528;49.976;11.858;2023-11-21T11:09:32;26.60;47.70
16823;DHT22;8528;49.976;11.858;2023-11-21T11:12:02;24.50;49.40
16823;DHT22;8528;49.976;11.858;2023-11-21T11:14:29;22.60;55.20
16823;DHT22;8528;49.976;11.858;2023-11-21T11:16:56;21.90;57.60
16823;DHT22;8528;49.976;11.858;2023-11-21T11:19:24;23.40;56.20
16823;DHT22;8528;49.976;11.858;2023-11-21T11:27:54;28.10;47.90
16823;DHT22;8528;49.976;11.858;2023-11-21T11:33:25;27.40;43.50
16823;DHT22;8528;49.976;11.858;2023-11-21T11:38:30;27.10;46.20
16823;DHT22;8528;49.976;11.858;2023-11-21T11:41:01;26.30;46.70
16823;DHT22;8528;49.976;11.858;2023-11-21T11:43:30;25.60;48.00
16823;DHT22;8528;49.976;11.858;2023-11-21T11:46:02;25.60;48.50
16823;DHT22;8528;49.976;11.858;2023-11-21T11:48:35;25.70;48.00
16823;DHT22;8528;49.976;11.858;2023-11-21T11:51:12;25.40;46.70
16823;DHT22;8528;49.976;11.858;2023-11-21T11:53:42;24.00;49.00
16823;DHT22;8528;49.976;11.858;2023-11-21T11:56:32;23.90;50.40
16823;DHT22;8528;49.976;11.858;2023-11-21T11:59:04;24.60;49.00
16823;DHT22;8528;49.976;11.858;2023-11-21T12:01:34;23.40;50.40
16823;DHT22;8528;49.976;11.858;2023-11-21T12:07:01;19.90;58.60
16823;DHT22;8528;49.976;11.858;2023-11-21T12:09:31;18.30;63.80
16823;DHT22;8528;49.976;11.858;2023-11-21T12:11:58;17.20;66.60
16823;DHT22;8528;49.976;11.858;2023-11-21T12:14:25;16.20;69.90
16823;DHT22;8528;49.976;11.858;2023-11-21T12:16:53;15.30;74.00
16823;DHT22;8528;49.976;11.858;2023-11-21T12:19:20;14.60;78.80
16823;DHT22;8528;49.976;11.858;2023-11-21T12:21:48;14.10;82.20
16823;DHT22;8528;49.976;11.858;2023-11-21T12:24:15;13.90;85.30
16823;DHT22;8528;49.976;11.858;2023-11-21T12:26:43;13.70;87.40
16823;DHT22;8528;49.976;11.858;2023-11-21T12:29:11;13.40;88.40
16823;DHT22;8528;49.976;11.858;2023-11-21T12:31:38;12.90;90.00
16823;DHT22;8528;49.976;11.858;2023-11-21T12:34:06;12.60;92.40
16823;DHT22;8528;49.976;11.858;2023-11-21T12:36:34;12.30;95.80
16823;DHT22;8528;49.976;11.858;2023-11-21T12:39:02;12.20;97.30
16823;DHT22;8528;49.976;11.858;2023-11-21T12:41:29;11.90;99.10
16823;DHT22;8528;49.976;11.858;2023-11-21T12:43:57;11.80;99.90
16823;DHT22;8528;49.976;11.858;2023-11-21T12:46:25;11.50;99.90
16823;DHT22;8528;49.976;11.858;2023-11-21T12:48:56;11.30;99.90
16823;DHT22;8528;49.976;11.858;2023-11-21T12:51:24;11.10;99.90
16823;DHT22;8528;49.976;11.858;2023-11-21T12:53:51;10.70;99.90
16823;DHT22;8528;49.976;11.858;2023-11-21T12:56:21;10.30;99.90
16823;DHT22;8528;49.976;11.858;2023-11-21T12:58:50;10.20;99.90
16823;DHT22;8528;49.976;11.858;2023-11-21T13:01:21;10.20;99.90
16823;DHT22;8528;49.976;11.858;2023-11-21T13:03:53;10.10;99.90
16823;DHT22;8528;49.976;11.858;2023-11-21T13:06:20;10.30;99.90
16823;DHT22;8528;49.976;11.858;2023-11-21T13:08:51;10.40;99.90
16823;DHT22;8528;49.976;11.858;2023-11-21T13:11:18;10.50;99.90
16823;DHT22;8528;49.976;11.858;2023-11-21T13:13:45;10.60;99.90
16823;DHT22;8528;49.976;11.858;2023-11-21T13:16:12;10.60;99.90
16823;DHT22;8528;49.976;11.858;2023-11-21T13:18:40;10.70;99.90
16823;DHT22;8528;49.976;11.858;2023-11-21T13:21:09;10.80;99.90
16823;DHT22;8528;49.976;11.858;2023-11-21T13:23:44;10.70;99.90
16823;DHT22;8528;49.976;11.858;2023-11-21T13:26:13;10.50;99.90
16823;DHT22;8528;49.976;11.858;2023-11-21T13:28:42;10.40;99.90
16823;DHT22;8528;49.976;11.858;2023-11-21T13:31:13;10.10;99.90
16823;DHT22;8528;49.976;11.858;2023-11-21T13:33:59;10.00;99.90
16823;DHT22;8528;49.976;11.858;2023-11-21T13:36:32;9.90;99.90
16823;DHT22;8528;49.976;11.858;2023-11-21T13:39:02;9.70;99.90
16823;DHT22;8528;49.976;11.858;2023-11-21T13:41:34;9.50;99.90
16823;DHT22;8528;49.976;11.858;2023-11-21T13:44:01;9.40;99.90
16823;DHT22;8528;49.976;11.858;2023-11-21T13:46:43;9.20;99.90
16823;DHT22;8528;49.976;11.858;2023-11-21T13:49:10;9.10;99.90
16823;DHT22;8528;49.976;11.858;2023-11-21T13:51:37;9.10;99.90
16823;DHT22;8528;49.976;11.858;2023-11-21T13:54:12;9.10;99.90
16823;DHT22;8528;49.976;11.858;2023-11-21T13:56:40;9.10;99.90
16823;DHT22;8528;49.976;11.858;2023-11-21T13:59:08;9.20;99.90
16823;DHT22;8528;49.976;11.858;2023-11-21T14:01:47;9.30;99.90
16823;DHT22;8528;49.976;11.858;2023-11-21T14:04:21;9.50;99.90
16823;DHT22;8528;49.976;11.858;2023-11-21T14:07:02;9.70;99.90
16823;DHT22;8528;49.976;11.858;2023-11-21T14:09:47;9.80;99.90
16823;DHT22;8528;49.976;11.858;2023-11-21T14:12:16;9.90;99.90
16823;DHT22;8528;49.976;11.858;2023-11-21T14:14:42;9.90;99.90
16823;DHT22;8528;49.976;11.858;2023-11-21T14:17:10;9.70;99.90
16823;DHT22;8528;49.976;11.858;2023-11-21T14:19:37;9.60;99.90
16823;DHT22;8528;49.976;11.858;2023-11-21T14:22:10;9.40;99.90
16823;DHT22;8528;49.976;11.858;2023-11-21T14:24:37;9.20;99.90
16823;DHT22;8528;49.976;11.858;2023-11-21T14:27:10;9.10;99.90
16823;DHT22;8528;49.976;11.858;2023-11-21T14:29:37;9.00;99.90
16823;DHT22;8528;49.976;11.858;2023-11-21T14:32:07;8.90;99.90
16823;DHT22;8528;49.976;11.858;2023-11-21T14:34:34;8.80;99.90
16823;DHT22;8528;49.976;11.858;2023-11-21T14:37:01;8.60;99.90
16823;DHT22;8528;49.976;11.858;2023-11-21T14:39:29;8.60;99.90
16823;DHT22;8528;49.976;11.858;2023-11-21T14:41:57;8.50;99.90
16823;DHT22;8528;49.976;11.858;2023-11-21T14:44:24;8.50;99.90
16823;DHT22;8528;49.976;11.858;2023-11-21T14:46:54;8.40;99.90
16823;DHT22;8528;49.976;11.858;2023-11-21T14:49:24;8.30;99.90
16823;DHT22;8528;49.976;11.858;2023-11-21T14:51:54;8.20;99.90
16823;DHT22;8528;49.976;11.858;2023-11-21T14:54:31;8.20;99.90
16823;DHT22;8528;49.976;11.858;2023-11-21T14:57:10;8.20;99.90
16823;DHT22;8528;49.976;11.858;2023-11-21T14:59:46;8.10;99.90
16823;DHT22;8528;49.976;11.858;2023-11-21T15:02:19;8.20;99.90
16823;DHT22;8528;49.976;11.858;2023-11-21T15:04:49;8.10;99.90
16823;DHT22;8528;49.976;11.858;2023-11-21T15:07:19;8.10;99.90
16823;DHT22;8528;49.976;11.858;2023-11-21T15:09:46;8.00;99.90
16823;DHT22;8528;49.976;11.858;2023-11-21T15:12:13;8.00;99.90
16823;DHT22;8528;49.976;11.858;2023-11-21T15:14:46;8.00;99.90
16823;DHT22;8528;49.976;11.858;2023-11-21T15:17:15;7.90;99.90
16823;DHT22;8528;49.976;11.858;2023-11-21T15:19:53;7.90;99.90
16823;DHT22;8528;49.976;11.858;2023-11-21T15:22:21;7.90;99.90
16823;DHT22;8528;49.976;11.858;2023-11-21T15:24:48;7.90;99.90
16823;DHT22;8528;49.976;11.858;2023-11-21T15:27:16;7.80;99.90
16823;DHT22;8528;49.976;11.858;2023-11-21T15:29:43;7.80;99.90
16823;DHT22;8528;49.976;11.858;2023-11-21T15:32:11;7.70;99.90
16823;DHT22;8528;49.976;11.858;2023-11-21T15:34:38;7.70;99.90
16823;DHT22;8528;49.976;11.858;2023-11-21T15:37:08;7.60;99.90
16823;DHT22;8528;49.976;11.858;2023-11-21T15:39:38;7.60;99.90
16823;DHT22;8528;49.976;11.858;2023-11-21T15:42:06;7.50;99.90
16823;DHT22;8528;49.976;11.858;2023-11-21T15:44:36;7.50;99.90
16823;DHT22;8528;49.976;11.858;2023-11-21T15:47:04;7.50;99.90
16823;DHT22;8528;49.976;11.858;2023-11-21T15:49:32;7.50;99.90
16823;DHT22;8528;49.976;11.858;2023-11-21T15:52:04;7.50;99.90
16823;DHT22;8528;49.976;11.858;2023-11-21T15:54:32;7.40;99.90
16823;DHT22;8528;49.976;11.858;2023-11-21T15:57:01;7.40;99.90
16823;DHT22;8528;49.976;11.858;2023-11-21T15:59:29;7.40;99.90
16823;DHT22;8528;49.976;11.858;2023-11-21T16:02:00;7.30;99.90
16823;DHT22;8528;49.976;11.858;2023-11-21T16:04:28;7.30;99.90
16823;DHT22;8528;49.976;11.858;2023-11-21T16:06:55;7.30;99.90
16823;DHT22;8528;49.976;11.858;2023-11-21T16:09:22;7.30;99.90
16823;DHT22;8528;49.976;11.858;2023-11-21T16:11:50;7.30;99.90
16823;DHT22;8528;49.976;11.858;2023-11-21T16:14:24;7.20;99.90